createdAt,value
2022-11-28T00:02:14.168Z,20.92
2022-11-28T00:04:44.016Z,19.83
2022-11-28T00:07:12.784Z,20.92
2022-11-28T00:09:41.694Z,21.25
2022-11-28T00:12:10.008Z,20.63
2022-11-28T00:14:42.000Z,21.10
2022-11-28T00:17:10.814Z,21.48
2022-11-28T00:19:41.569Z,22.08
2022-11-28T00:22:11.179Z,20.65
2022-11-28T00:24:47.273Z,20.27
2022-11-28T00:27:16.717Z,20.90
2022-11-28T00:29:44.703Z,18.98
2022-11-28T00:32:14.313Z,21.17
2022-11-28T00:34:46.557Z,18.00
2022-11-28T00:37:16.887Z,21.48
2022-11-28T00:39:47.873Z,20.60
2022-11-28T00:42:21.347Z,21.58
2022-11-28T00:44:50.097Z,21.17
2022-11-28T00:47:19.044Z,21.52
2022-11-28T00:49:47.887Z,21.75
2022-11-28T00:52:19.684Z,19.63
2022-11-28T00:54:47.697Z,20.20
2022-11-28T00:57:17.114Z,18.63
2022-11-28T00:59:45.124Z,21.00
2022-11-28T01:02:14.801Z,19.55
2022-11-28T01:04:43.303Z,20.90
2022-11-28T01:07:12.595Z,19.42
2022-11-28T01:09:42.154Z,19.70
2022-11-28T01:12:11.116Z,19.48
2022-11-28T01:14:44.360Z,20.83
2022-11-28T01:17:14.101Z,20.67
2022-11-28T01:19:42.445Z,19.63
2022-11-28T01:22:10.861Z,19.92
2022-11-28T01:24:38.868Z,19.65
2022-11-28T01:27:09.689Z,19.27
2022-11-28T01:29:38.459Z,18.80
2022-11-28T01:32:06.562Z,18.08
2022-11-28T01:34:34.595Z,18.45
2022-11-28T01:37:03.384Z,20.20
2022-11-28T01:39:32.050Z,20.05
2022-11-28T01:42:00.423Z,18.98
2022-11-28T01:45:06.429Z,19.55
2022-11-28T01:47:35.536Z,19.95
2022-11-28T01:50:06.514Z,18.90
2022-11-28T01:52:36.482Z,19.48
2022-11-28T01:55:06.631Z,20.40
2022-11-28T01:57:36.417Z,18.92
2022-11-28T02:00:11.893Z,18.00
2022-11-28T02:02:44.617Z,18.58
2022-11-28T02:05:12.757Z,18.50
2022-11-28T02:07:42.408Z,18.95
2022-11-28T02:10:13.577Z,17.50
2022-11-28T02:12:55.669Z,19.27
2022-11-28T02:15:35.065Z,18.02
2022-11-28T02:18:14.527Z,18.30
2022-11-28T02:20:57.684Z,18.38
2022-11-28T02:26:22.314Z,16.50
2022-11-28T02:29:12.302Z,17.40
2022-11-28T02:32:02.013Z,18.42
2022-11-28T02:34:41.119Z,17.17
2022-11-28T02:37:17.470Z,18.65
2022-11-28T02:39:56.709Z,17.40
2022-11-28T02:42:31.869Z,18.20
2022-11-28T02:45:02.125Z,18.83
2022-11-28T02:47:34.717Z,17.73
2022-11-28T02:50:07.346Z,16.85
2022-11-28T02:52:37.645Z,18.38
2022-11-28T02:55:09.807Z,19.17
2022-11-28T03:00:26.484Z,18.77
2022-11-28T03:03:17.843Z,19.80
2022-11-28T03:05:51.165Z,18.33
2022-11-28T03:08:32.185Z,18.20
2022-11-28T03:11:05.599Z,20.35
2022-11-28T03:13:39.986Z,20.75
2022-11-28T03:16:16.139Z,19.13
2022-11-28T03:18:56.200Z,18.40
2022-11-28T03:21:27.297Z,20.48
2022-11-28T03:24:00.877Z,20.35
2022-11-28T03:26:34.253Z,19.80
2022-11-28T03:29:10.111Z,17.27
2022-11-28T03:31:40.892Z,18.60
2022-11-28T03:34:15.086Z,18.67
2022-11-28T03:36:48.730Z,20.67
2022-11-28T03:39:23.943Z,19.08
2022-11-28T03:41:57.007Z,18.45
2022-11-28T03:44:30.046Z,17.95
2022-11-28T03:46:59.579Z,19.42
2022-11-28T03:49:32.218Z,19.65
2022-11-28T03:52:03.774Z,19.38
2022-11-28T03:54:36.131Z,18.95
2022-11-28T03:57:08.512Z,19.02
2022-11-28T03:59:39.143Z,19.27
2022-11-28T04:02:14.975Z,18.75
2022-11-28T04:04:52.080Z,18.63
2022-11-28T04:07:25.336Z,19.20
2022-11-28T04:10:03.323Z,18.83
2022-11-28T04:12:38.755Z,18.92
2022-11-28T04:15:10.825Z,17.77
2022-11-28T04:17:43.383Z,17.63
2022-11-28T04:20:16.426Z,17.65
2022-11-28T04:22:48.479Z,18.02
2022-11-28T04:25:21.556Z,20.02
2022-11-28T04:27:55.406Z,17.15
2022-11-28T04:30:23.523Z,18.50
2022-11-28T04:32:54.458Z,17.48
2022-11-28T04:35:30.285Z,18.23
2022-11-28T04:38:03.409Z,17.25
2022-11-28T04:40:34.490Z,17.35
2022-11-28T04:43:05.750Z,16.47
2022-11-28T04:45:36.908Z,15.27
2022-11-28T04:53:19.049Z,16.58
2022-11-28T04:55:51.836Z,16.27
2022-11-28T04:58:24.787Z,15.05
2022-11-28T05:01:00.879Z,17.35
2022-11-28T05:03:31.860Z,16.50
2022-11-28T05:06:03.422Z,17.08
2022-11-28T05:08:33.634Z,17.10
2022-11-28T05:11:02.860Z,15.20
2022-11-28T05:13:31.383Z,16.08
2022-11-28T05:16:03.376Z,16.83
2022-11-28T05:18:34.635Z,15.68
2022-11-28T05:21:08.105Z,16.58
2022-11-28T05:23:37.005Z,16.60
2022-11-28T05:26:11.729Z,15.90
2022-11-28T05:28:41.744Z,15.77
2022-11-28T05:31:11.464Z,15.55
2022-11-28T05:33:39.784Z,15.10
2022-11-28T05:36:13.722Z,15.20
2022-11-28T05:38:43.727Z,16.75
2022-11-28T05:41:21.302Z,16.77
2022-11-28T05:43:49.280Z,15.95
2022-11-28T05:46:18.249Z,16.45
2022-11-28T05:48:46.451Z,17.60
2022-11-28T05:51:18.721Z,16.15
2022-11-28T05:56:17.774Z,17.05
2022-11-28T05:58:46.724Z,16.63
2022-11-28T06:01:19.500Z,17.48
2022-11-28T06:03:51.100Z,15.15
2022-11-28T06:06:22.725Z,19.38
2022-11-28T06:08:53.502Z,15.52
2022-11-28T06:11:23.225Z,16.85
2022-11-28T06:13:53.315Z,16.70
2022-11-28T06:16:24.955Z,16.45
2022-11-28T06:18:56.812Z,18.15
2022-11-28T06:21:34.862Z,14.80
2022-11-28T06:24:09.006Z,14.75
2022-11-28T06:26:38.487Z,15.90
2022-11-28T06:29:06.430Z,16.23
2022-11-28T06:31:37.763Z,16.17
2022-11-28T06:34:09.508Z,16.70
2022-11-28T06:36:38.881Z,15.77
2022-11-28T06:39:07.251Z,15.55
2022-11-28T06:41:35.324Z,16.40
2022-11-28T06:44:04.556Z,15.68
2022-11-28T06:46:32.762Z,14.73
2022-11-28T06:49:03.431Z,15.77
2022-11-28T06:51:32.532Z,18.08
2022-11-28T06:54:02.562Z,15.57
2022-11-28T06:56:31.006Z,15.60
2022-11-28T06:59:00.727Z,14.77
2022-11-28T07:01:34.806Z,14.90
2022-11-28T07:04:03.257Z,16.60
2022-11-28T07:06:31.297Z,13.43
2022-11-28T07:09:00.417Z,16.63
2022-11-28T07:11:33.488Z,17.05
2022-11-28T07:14:03.314Z,17.90
2022-11-28T07:16:35.929Z,17.75
2022-11-28T07:19:04.149Z,17.42
2022-11-28T07:21:33.704Z,16.15
2022-11-28T07:24:03.958Z,17.33
2022-11-28T07:26:33.570Z,15.23
2022-11-28T07:29:01.751Z,16.48
2022-11-28T07:31:32.680Z,17.58
2022-11-28T07:34:03.584Z,15.65
2022-11-28T07:36:32.665Z,15.75
2022-11-28T07:39:04.786Z,16.45
2022-11-28T07:41:34.212Z,15.40
2022-11-28T07:44:07.060Z,16.27
2022-11-28T07:46:35.474Z,16.17
2022-11-28T07:49:04.349Z,16.10
2022-11-28T07:51:35.459Z,16.95
2022-11-28T07:54:05.844Z,16.45
2022-11-28T07:57:12.052Z,14.95
2022-11-28T07:59:26.698Z,13.50
2022-11-28T08:01:55.001Z,16.17
2022-11-28T08:04:24.426Z,17.70
2022-11-28T08:06:53.937Z,16.83
2022-11-28T08:09:25.352Z,17.75
2022-11-28T08:11:54.834Z,17.13
2022-11-28T08:14:28.079Z,17.33
2022-11-28T08:16:57.393Z,17.23
2022-11-28T08:19:30.589Z,18.20
2022-11-28T08:22:00.229Z,16.50
2022-11-28T08:24:28.477Z,17.48
2022-11-28T08:26:57.875Z,15.85
2022-11-28T08:29:27.482Z,18.92
2022-11-28T08:31:56.080Z,18.02
2022-11-28T08:34:24.286Z,18.75
2022-11-28T08:36:52.388Z,18.67
2022-11-28T08:39:24.960Z,19.67
2022-11-28T08:41:54.254Z,18.75
2022-11-28T08:44:25.236Z,18.88
2022-11-28T08:46:53.740Z,18.40
2022-11-28T08:49:23.054Z,18.52
2022-11-28T08:51:52.846Z,18.00
2022-11-28T08:54:30.007Z,18.40
2022-11-28T08:56:59.104Z,18.83
2022-11-28T08:59:29.489Z,18.33
2022-11-28T09:01:57.683Z,18.92
2022-11-28T09:04:26.192Z,16.80
2022-11-28T09:06:54.588Z,18.65
2022-11-28T09:09:27.126Z,20.48
2022-11-28T09:12:04.948Z,18.13
2022-11-28T09:14:34.576Z,18.92
2022-11-28T09:17:06.240Z,18.67
2022-11-28T09:19:34.690Z,19.65
2022-11-28T09:22:02.702Z,19.55
2022-11-28T09:24:33.981Z,19.15
2022-11-28T09:27:04.870Z,18.90
2022-11-28T09:29:34.358Z,19.20
2022-11-28T09:32:02.823Z,19.80
2022-11-28T09:34:36.170Z,18.70
2022-11-28T09:37:08.120Z,20.80
2022-11-28T09:39:57.026Z,18.48
2022-11-28T09:42:30.963Z,17.88
2022-11-28T09:45:03.253Z,19.55
2022-11-28T09:47:36.973Z,19.65
2022-11-28T09:50:14.949Z,18.92
2022-11-28T09:52:49.479Z,19.77
2022-11-28T09:55:27.805Z,17.95
2022-11-28T09:57:57.993Z,18.65
2022-11-28T10:00:35.305Z,18.08
2022-11-28T10:03:18.933Z,18.60
2022-11-28T10:05:57.220Z,18.40
2022-11-28T10:08:37.638Z,19.17
2022-11-28T10:11:13.280Z,18.63
2022-11-28T10:14:07.069Z,17.90
2022-11-28T10:16:47.457Z,17.38
2022-11-28T10:19:52.213Z,18.30
2022-11-28T10:22:13.262Z,16.58
2022-11-28T10:24:47.024Z,18.00
2022-11-28T10:27:16.965Z,18.33
2022-11-28T10:29:53.622Z,16.13
2022-11-28T10:32:29.943Z,18.90
2022-11-28T10:35:02.348Z,18.00
2022-11-28T10:37:33.470Z,18.08
2022-11-28T10:40:15.785Z,18.98
2022-11-28T10:42:48.751Z,19.70
2022-11-28T10:45:25.080Z,18.65
2022-11-28T10:48:39.068Z,18.88
2022-11-28T10:51:16.950Z,20.50
2022-11-28T10:53:48.193Z,19.45
2022-11-28T10:56:27.775Z,17.70
2022-11-28T10:59:03.219Z,18.50
2022-11-28T11:01:34.184Z,18.30
2022-11-28T11:04:05.585Z,18.45
2022-11-28T11:06:41.673Z,17.47
2022-11-28T11:09:15.933Z,17.08
2022-11-28T11:11:52.113Z,18.92
2022-11-28T11:14:35.220Z,16.65
2022-11-28T11:17:05.647Z,17.95
2022-11-28T11:19:36.776Z,17.80
2022-11-28T11:22:07.916Z,17.50
2022-11-28T11:24:36.822Z,16.95
2022-11-28T11:27:14.089Z,17.05
2022-11-28T11:29:44.032Z,18.73
2022-11-28T11:32:21.808Z,18.75
2022-11-28T11:34:55.125Z,17.42
2022-11-28T11:37:34.698Z,17.55
2022-11-28T11:40:04.720Z,18.77
2022-11-28T11:42:35.750Z,17.25
2022-11-28T11:45:26.137Z,18.27
2022-11-28T11:47:54.410Z,19.33
2022-11-28T11:50:25.345Z,17.17
2022-11-28T11:53:06.997Z,19.00
2022-11-28T11:55:46.103Z,16.23
2022-11-28T11:58:17.529Z,17.73
2022-11-28T12:00:46.334Z,17.37
2022-11-28T12:03:22.785Z,17.00
2022-11-28T12:08:48.917Z,18.60
2022-11-28T12:11:22.054Z,17.13
2022-11-28T12:13:51.328Z,16.83
2022-11-28T12:16:33.655Z,17.50
2022-11-28T12:19:07.976Z,17.77
2022-11-28T12:21:41.636Z,17.65
2022-11-28T12:24:12.614Z,15.55
2022-11-28T12:26:49.387Z,17.25
2022-11-28T12:29:38.985Z,16.02
2022-11-28T12:32:18.870Z,15.93
2022-11-28T12:34:59.469Z,16.73
2022-11-28T12:38:09.083Z,15.43
2022-11-28T12:40:35.362Z,16.17
2022-11-28T12:43:17.770Z,16.02
2022-11-28T12:48:32.070Z,16.63
2022-11-28T12:51:04.768Z,16.55
2022-11-28T12:53:45.687Z,15.20
2022-11-28T12:56:27.295Z,15.93
2022-11-28T12:58:59.042Z,15.63
2022-11-28T13:01:42.258Z,16.92
2022-11-28T13:04:25.588Z,16.45
2022-11-28T13:07:00.329Z,17.02
2022-11-28T13:09:32.692Z,16.35
2022-11-28T13:12:15.490Z,17.10
2022-11-28T13:14:49.693Z,17.10
2022-11-28T13:17:24.331Z,17.40
2022-11-28T13:19:58.556Z,16.02
2022-11-28T13:22:30.601Z,16.77
2022-11-28T13:25:04.515Z,16.65
2022-11-28T13:27:39.145Z,16.58
2022-11-28T13:30:16.154Z,15.93
2022-11-28T13:32:48.920Z,16.55
2022-11-28T13:35:20.415Z,17.50
2022-11-28T13:40:48.004Z,14.25
2022-11-28T13:43:39.589Z,16.85
2022-11-28T13:46:08.508Z,16.40
2022-11-28T13:49:14.255Z,16.13
2022-11-28T13:51:43.184Z,14.27
2022-11-28T13:54:35.404Z,13.27
2022-11-28T13:57:19.049Z,15.10
2022-11-28T13:59:52.935Z,15.30
2022-11-28T14:02:24.346Z,14.93
2022-11-28T14:04:53.657Z,15.87
2022-11-28T14:07:29.727Z,15.10
2022-11-28T14:10:18.133Z,15.88
2022-11-28T14:12:59.001Z,14.65
2022-11-28T14:15:31.268Z,15.18
2022-11-28T14:20:35.028Z,15.57
2022-11-28T14:23:23.333Z,13.88
2022-11-28T14:25:52.754Z,16.40
2022-11-28T14:28:25.266Z,16.80
2022-11-28T14:33:25.599Z,16.48
2022-11-28T14:36:24.198Z,16.98
2022-11-28T14:39:11.465Z,15.85
2022-11-28T14:42:36.833Z,16.13
2022-11-28T14:45:42.841Z,17.52
2022-11-28T14:48:21.907Z,19.23
2022-11-28T14:51:00.872Z,19.02
2022-11-28T14:53:44.389Z,21.08
2022-11-28T14:56:25.490Z,21.13
2022-11-28T14:58:57.777Z,20.80
2022-11-28T15:04:16.177Z,19.40
2022-11-28T15:06:48.011Z,20.20
2022-11-28T15:09:24.421Z,22.85
2022-11-28T15:12:08.192Z,22.52
2022-11-28T15:14:38.626Z,20.92
2022-11-28T15:17:11.817Z,20.77
2022-11-28T15:19:44.777Z,21.23
2022-11-28T15:22:31.738Z,19.98
2022-11-28T15:25:05.399Z,20.55
2022-11-28T15:27:34.450Z,20.52
2022-11-28T15:30:04.496Z,21.83
2022-11-28T15:32:34.332Z,22.35
2022-11-28T15:35:12.271Z,20.48
2022-11-28T15:37:48.459Z,21.38
2022-11-28T15:40:21.580Z,21.05
2022-11-28T15:42:51.264Z,20.98
2022-11-28T15:45:24.425Z,21.67
2022-11-28T15:47:58.562Z,22.75
2022-11-28T15:50:29.161Z,21.92
2022-11-28T15:53:03.939Z,21.02
2022-11-28T15:55:34.876Z,21.23
2022-11-28T15:58:19.939Z,22.85
2022-11-28T16:00:52.202Z,22.70
2022-11-28T16:03:24.996Z,22.45
2022-11-28T16:05:56.085Z,22.98
2022-11-28T16:08:28.498Z,23.00
2022-11-28T16:11:00.469Z,22.48
2022-11-28T16:13:31.525Z,23.15
2022-11-28T16:16:04.155Z,24.25
2022-11-28T16:18:35.550Z,25.33
2022-11-28T16:21:04.784Z,23.83
2022-11-28T16:23:35.735Z,24.05
2022-11-28T16:26:05.679Z,26.05
2022-11-28T16:28:37.854Z,26.10
2022-11-28T16:31:13.331Z,25.17
2022-11-28T16:33:47.994Z,25.17
2022-11-28T16:36:22.440Z,26.20
2022-11-28T16:38:53.272Z,23.98
2022-11-28T16:41:25.946Z,24.52
2022-11-28T16:43:55.788Z,24.77
2022-11-28T16:46:25.754Z,24.38
2022-11-28T16:48:57.502Z,26.13
2022-11-28T16:51:32.767Z,26.65
2022-11-28T16:54:01.864Z,26.23
2022-11-28T16:56:44.377Z,26.25
2022-11-28T16:59:15.551Z,26.15
2022-11-28T17:01:45.306Z,28.73
2022-11-28T17:04:23.260Z,26.75
2022-11-28T17:06:52.209Z,28.08
2022-11-28T17:09:21.085Z,27.42
2022-11-28T17:11:53.568Z,29.73
2022-11-28T17:14:21.673Z,29.35
2022-11-28T17:16:53.029Z,28.83
2022-11-28T17:19:22.665Z,27.23
2022-11-28T17:21:52.467Z,29.00
2022-11-28T17:24:23.739Z,29.02
2022-11-28T17:29:22.747Z,26.98
2022-11-28T17:31:55.770Z,28.42
2022-11-28T17:34:28.821Z,29.00
2022-11-28T17:36:56.785Z,29.35
2022-11-28T17:39:25.155Z,29.02
2022-11-28T17:41:54.536Z,29.75
2022-11-28T17:44:24.750Z,29.13
2022-11-28T17:46:56.388Z,29.08
2022-11-28T17:49:26.460Z,30.40
2022-11-28T17:51:56.297Z,28.13
2022-11-28T17:54:26.461Z,30.90
2022-11-28T17:56:55.092Z,29.40
2022-11-28T17:59:24.616Z,31.05
2022-11-28T18:01:52.692Z,30.40
2022-11-28T18:04:20.964Z,28.80
2022-11-28T18:06:50.456Z,29.48
2022-11-28T18:09:19.929Z,32.20
2022-11-28T18:11:47.944Z,31.52
2022-11-28T18:14:19.669Z,29.33
2022-11-28T18:16:49.914Z,31.77
2022-11-28T18:19:18.379Z,32.80
2022-11-28T18:21:46.694Z,31.67
2022-11-28T18:24:18.730Z,34.38
2022-11-28T18:26:47.383Z,32.03
2022-11-28T18:29:16.639Z,32.50
2022-11-28T18:31:48.063Z,32.38
2022-11-28T18:34:17.452Z,33.97
2022-11-28T18:36:45.841Z,32.15
2022-11-28T18:39:18.825Z,33.05
2022-11-28T18:41:49.875Z,32.35
2022-11-28T18:44:18.672Z,36.15
2022-11-28T18:46:49.898Z,34.42
2022-11-28T18:49:19.544Z,33.55
2022-11-28T18:51:48.826Z,34.53
2022-11-28T18:54:25.198Z,36.10
2022-11-28T18:56:53.271Z,35.33
2022-11-28T18:59:22.684Z,33.05
2022-11-28T19:01:51.936Z,35.00
2022-11-28T19:04:23.180Z,34.30
2022-11-28T19:06:51.829Z,34.28
2022-11-28T19:09:27.036Z,32.67
2022-11-28T19:11:56.226Z,33.28
2022-11-28T19:14:25.056Z,35.33
2022-11-28T19:16:57.531Z,33.83
2022-11-28T19:19:26.965Z,35.05
2022-11-28T19:21:55.748Z,36.00
2022-11-28T19:24:27.144Z,35.97
2022-11-28T19:26:55.819Z,36.33
2022-11-28T19:29:27.191Z,36.80
2022-11-28T19:31:56.390Z,36.55
2022-11-28T19:34:27.062Z,35.40
2022-11-28T19:36:55.640Z,37.33
2022-11-28T19:39:28.320Z,37.50
2022-11-28T19:41:57.013Z,36.95
2022-11-28T19:44:29.005Z,37.63
2022-11-28T19:46:58.768Z,37.85
2022-11-28T19:49:29.639Z,38.58
2022-11-28T19:51:58.055Z,38.70
2022-11-28T19:54:31.727Z,38.55
2022-11-28T19:57:00.034Z,34.75
2022-11-28T19:59:32.101Z,39.90
2022-11-28T20:02:02.709Z,38.08
2022-11-28T20:04:31.530Z,40.17
2022-11-28T20:07:06.415Z,39.55
2022-11-28T20:09:36.347Z,41.45
2022-11-28T20:12:10.305Z,40.13
2022-11-28T20:14:45.050Z,41.08
2022-11-28T20:17:16.007Z,40.78
2022-11-28T20:19:48.134Z,40.13
2022-11-28T20:22:22.839Z,41.95
2022-11-28T20:24:57.370Z,38.47
2022-11-28T20:27:25.335Z,40.97
2022-11-28T20:29:53.279Z,40.95
2022-11-28T20:32:21.328Z,40.88
2022-11-28T20:34:53.795Z,42.15
2022-11-28T20:37:21.851Z,42.17
2022-11-28T20:39:50.300Z,44.03
2022-11-28T20:42:20.536Z,40.83
2022-11-28T20:44:48.954Z,37.13
2022-11-28T20:47:17.398Z,43.25
2022-11-28T20:49:45.649Z,42.83
2022-11-28T20:52:14.004Z,40.72
2022-11-28T20:54:42.201Z,41.28
2022-11-28T20:57:25.508Z,44.30
2022-11-28T20:59:56.872Z,39.38
2022-11-28T21:02:25.137Z,42.20
2022-11-28T21:04:54.489Z,41.08
2022-11-28T21:07:23.978Z,41.47
2022-11-28T21:09:54.048Z,42.35
2022-11-28T21:12:23.301Z,39.08
2022-11-28T21:14:54.468Z,40.58
2022-11-28T21:17:24.126Z,39.13
2022-11-28T21:19:52.852Z,41.47
2022-11-28T21:22:20.841Z,40.38
2022-11-28T21:24:51.330Z,41.75
2022-11-28T21:27:19.934Z,40.28
2022-11-28T21:29:50.772Z,40.25
2022-11-28T21:32:19.003Z,40.83
2022-11-28T21:34:48.656Z,37.17
2022-11-28T21:37:16.866Z,39.90
2022-11-28T21:39:45.575Z,42.05
2022-11-28T21:42:20.186Z,40.20
2022-11-28T21:44:51.956Z,40.38
2022-11-28T21:47:20.085Z,39.80
2022-11-28T21:49:49.652Z,39.40
2022-11-28T21:52:23.430Z,38.63
2022-11-28T21:54:51.834Z,38.47
2022-11-28T21:57:20.290Z,40.38
2022-11-28T21:59:49.385Z,40.53
2022-11-28T22:02:18.031Z,37.65
2022-11-28T22:04:46.549Z,39.13
2022-11-28T22:07:16.508Z,41.30
2022-11-28T22:09:45.872Z,39.15
2022-11-28T22:12:14.914Z,40.33
2022-11-28T22:14:43.064Z,37.58
2022-11-28T22:17:12.505Z,39.95
2022-11-28T22:19:40.560Z,40.83
2022-11-28T22:22:08.731Z,41.03
2022-11-28T22:24:38.213Z,39.83
2022-11-28T22:27:06.896Z,39.15
2022-11-28T22:29:34.974Z,38.28
2022-11-28T22:32:03.396Z,39.45
2022-11-28T22:34:38.392Z,39.47
2022-11-28T22:37:08.661Z,39.30
2022-11-28T22:39:38.992Z,39.80
2022-11-28T22:42:08.635Z,38.67
2022-11-28T22:44:37.692Z,40.00
2022-11-28T22:47:06.293Z,37.00
2022-11-28T22:49:34.377Z,42.55
2022-11-28T22:52:02.494Z,38.08
2022-11-28T22:54:31.545Z,36.88
2022-11-28T22:57:01.227Z,41.00
2022-11-28T22:59:29.552Z,40.08
2022-11-28T23:01:58.127Z,38.72
2022-11-28T23:04:26.100Z,37.60
2022-11-28T23:06:54.180Z,40.10
2022-11-28T23:09:22.265Z,40.97
2022-11-28T23:11:50.293Z,39.78
2022-11-28T23:14:19.699Z,41.10
2022-11-28T23:16:47.992Z,39.30
2022-11-28T23:19:19.212Z,38.80
2022-11-28T23:21:49.216Z,40.42
2022-11-28T23:24:20.488Z,40.50
2022-11-28T23:26:49.931Z,40.43
2022-11-28T23:29:20.894Z,41.00
2022-11-28T23:31:49.309Z,40.08
2022-11-28T23:34:17.793Z,38.70
2022-11-28T23:36:49.599Z,37.97
2022-11-28T23:39:19.959Z,40.70
2022-11-28T23:41:48.454Z,40.63
2022-11-28T23:44:19.644Z,38.95
2022-11-28T23:46:50.445Z,41.00
2022-11-28T23:49:19.122Z,41.55
2022-11-28T23:51:47.516Z,40.40
2022-11-28T23:54:16.491Z,41.15
2022-11-28T23:56:46.303Z,42.58
2022-11-28T23:59:14.510Z,39.53
